createdAt,value
2023-04-03T00:01:16.651Z,1.00
2023-04-03T00:03:45.181Z,1.00
2023-04-03T00:06:13.375Z,1.00
2023-04-03T00:08:43.264Z,1.00
2023-04-03T00:11:12.102Z,1.00
2023-04-03T00:13:40.692Z,1.00
2023-04-03T00:16:10.475Z,1.40
2023-04-03T00:18:39.325Z,1.00
2023-04-03T00:21:08.049Z,1.20
2023-04-03T00:23:36.766Z,1.00
2023-04-03T00:26:06.457Z,1.00
2023-04-03T00:28:34.655Z,1.00
2023-04-03T00:31:02.936Z,1.00
2023-04-03T00:33:31.125Z,1.00
2023-04-03T00:35:59.357Z,1.00
2023-04-03T00:38:27.566Z,1.00
2023-04-03T00:40:55.770Z,1.00
2023-04-03T00:43:27.516Z,1.00
2023-04-03T00:45:57.149Z,1.00
2023-04-03T00:48:30.002Z,1.00
2023-04-03T00:50:59.012Z,2.60
2023-04-03T00:53:31.110Z,7.40
2023-04-03T00:56:00.747Z,3.10
2023-04-03T00:58:35.118Z,1.00
2023-04-03T01:01:08.821Z,7.60
2023-04-03T01:03:37.545Z,4.60
2023-04-03T01:06:06.227Z,1.00
2023-04-03T01:08:34.581Z,1.00
2023-04-03T01:11:02.742Z,10.20
2023-04-03T01:13:34.800Z,8.10
2023-04-03T01:16:06.326Z,1.00
2023-04-03T01:18:35.863Z,11.30
2023-04-03T01:21:39.124Z,1.00
2023-04-03T01:24:23.938Z,1.00
2023-04-03T01:26:52.356Z,1.00
2023-04-03T01:29:21.914Z,2.60
2023-04-03T01:31:54.690Z,1.00
2023-04-03T01:34:23.409Z,1.00
2023-04-03T01:36:51.895Z,1.00
2023-04-03T01:39:20.314Z,1.00
2023-04-03T01:41:49.973Z,7.00
2023-04-03T01:44:18.224Z,1.00
2023-04-03T01:46:46.410Z,1.00
2023-04-03T01:49:15.972Z,1.00
2023-04-03T01:51:44.123Z,1.00
2023-04-03T01:54:12.404Z,4.90
2023-04-03T01:56:40.618Z,1.00
2023-04-03T01:59:08.849Z,1.00
2023-04-03T02:01:37.346Z,1.00
2023-04-03T02:04:05.753Z,1.00
2023-04-03T02:06:35.972Z,2.50
2023-04-03T02:09:04.312Z,1.00
2023-04-03T02:11:32.859Z,1.00
2023-04-03T02:14:01.159Z,5.30
2023-04-03T02:16:29.760Z,5.20
2023-04-03T02:18:57.996Z,1.00
2023-04-03T02:21:26.411Z,1.00
2023-04-03T02:23:55.972Z,1.00
2023-04-03T02:26:24.129Z,1.00
2023-04-03T02:28:52.359Z,1.00
2023-04-03T02:31:21.805Z,1.00
2023-04-03T02:33:50.110Z,2.40
2023-04-03T02:36:18.358Z,1.00
2023-04-03T02:38:46.586Z,1.00
2023-04-03T02:41:16.288Z,1.00
2023-04-03T02:43:44.508Z,1.00
2023-04-03T02:46:12.720Z,1.00
2023-04-03T02:48:40.905Z,1.00
2023-04-03T02:51:09.246Z,1.00
2023-04-03T02:53:37.513Z,1.00
2023-04-03T02:56:06.105Z,1.00
2023-04-03T02:58:35.677Z,1.00
2023-04-03T03:01:03.877Z,1.00
2023-04-03T03:03:32.057Z,1.00
2023-04-03T03:06:04.612Z,1.00
2023-04-03T03:08:32.874Z,1.00
2023-04-03T03:11:01.115Z,1.00
2023-04-03T03:13:29.322Z,1.00
2023-04-03T03:15:59.035Z,1.00
2023-04-03T03:18:27.209Z,1.00
2023-04-03T03:20:56.164Z,1.00
2023-04-03T03:23:26.284Z,1.00
2023-04-03T03:25:57.619Z,1.00
2023-04-03T03:28:26.032Z,1.00
2023-04-03T03:30:54.234Z,1.00
2023-04-03T03:33:23.877Z,1.00
2023-04-03T03:35:52.184Z,1.00
2023-04-03T03:38:20.987Z,1.00
2023-04-03T03:40:49.676Z,1.00
2023-04-03T03:43:18.281Z,2.80
2023-04-03T03:45:47.326Z,1.00
2023-04-03T03:48:15.508Z,1.00
2023-04-03T03:50:45.096Z,1.00
2023-04-03T03:53:13.299Z,1.00
2023-04-03T03:55:41.501Z,1.00
2023-04-03T03:58:09.728Z,1.00
2023-04-03T04:00:38.018Z,1.00
2023-04-03T04:03:06.314Z,1.00
2023-04-03T04:05:34.856Z,1.00
2023-04-03T04:08:04.711Z,1.00
2023-04-03T04:10:32.898Z,1.00
2023-04-03T04:13:01.127Z,1.00
2023-04-03T04:15:29.363Z,1.40
2023-04-03T04:17:58.076Z,1.00
2023-04-03T04:20:26.365Z,1.00
2023-04-03T04:22:54.537Z,1.00
2023-04-03T04:25:24.100Z,1.00
2023-04-03T04:27:52.263Z,1.00
2023-04-03T04:30:20.681Z,1.50
2023-04-03T04:32:48.936Z,1.00
2023-04-03T04:35:17.416Z,1.00
2023-04-03T04:37:45.732Z,1.00
2023-04-03T04:40:14.200Z,3.80
2023-04-03T04:42:43.775Z,1.00
2023-04-03T04:45:12.600Z,1.00
2023-04-03T04:47:40.962Z,1.00
2023-04-03T04:50:09.841Z,1.00
2023-04-03T04:52:38.346Z,1.00
2023-04-03T04:55:07.496Z,1.00
2023-04-03T04:57:36.284Z,1.00
2023-04-03T05:00:07.132Z,1.00
2023-04-03T05:02:35.376Z,1.00
2023-04-03T05:05:05.124Z,1.00
2023-04-03T05:07:33.739Z,1.00
2023-04-03T05:10:01.950Z,1.00
2023-04-03T05:12:30.107Z,1.00
2023-04-03T05:14:58.279Z,1.00
2023-04-03T05:17:27.871Z,1.00
2023-04-03T05:19:56.054Z,1.00
2023-04-03T05:22:24.401Z,3.00
2023-04-03T05:24:52.605Z,1.00
2023-04-03T05:27:20.901Z,1.00
2023-04-03T05:29:49.047Z,1.00
2023-04-03T05:32:17.216Z,1.00
2023-04-03T05:34:46.809Z,1.00
2023-04-03T05:37:14.986Z,1.00
2023-04-03T05:39:43.225Z,1.00
2023-04-03T05:42:12.396Z,1.00
2023-04-03T05:44:41.828Z,1.00
2023-04-03T05:47:09.998Z,1.00
2023-04-03T05:49:41.689Z,1.00
2023-04-03T05:52:22.168Z,1.00
2023-04-03T05:54:53.325Z,1.00
2023-04-03T05:57:21.775Z,1.00
2023-04-03T05:59:50.810Z,1.00
2023-04-03T06:02:21.151Z,1.00
2023-04-03T06:04:50.033Z,1.00
2023-04-03T06:07:22.164Z,1.00
2023-04-03T06:09:50.986Z,1.00
2023-04-03T06:12:19.960Z,1.00
2023-04-03T06:14:48.508Z,1.00
2023-04-03T06:17:17.191Z,1.00
2023-04-03T06:19:45.626Z,1.00
2023-04-03T06:22:14.064Z,1.00
2023-04-03T06:24:44.740Z,1.00
2023-04-03T06:27:13.743Z,1.00
2023-04-03T06:29:42.050Z,1.00
2023-04-03T06:32:10.278Z,1.00
2023-04-03T06:34:38.457Z,1.00
2023-04-03T06:37:06.845Z,1.00
2023-04-03T06:39:35.893Z,1.00
2023-04-03T06:42:05.478Z,1.00
2023-04-03T06:44:34.901Z,1.00
2023-04-03T06:47:03.726Z,1.00
2023-04-03T06:49:33.805Z,1.00
2023-04-03T06:52:02.738Z,1.00
2023-04-03T06:54:31.055Z,1.00
2023-04-03T06:56:59.252Z,1.00
2023-04-03T06:59:28.879Z,1.00
2023-04-03T07:01:57.157Z,1.00
2023-04-03T07:04:25.777Z,1.00
2023-04-03T07:06:54.464Z,1.00
2023-04-03T07:09:22.741Z,1.00
2023-04-03T07:11:51.158Z,1.00
2023-04-03T07:14:19.332Z,1.00
2023-04-03T07:16:48.925Z,1.00
2023-04-03T07:19:17.358Z,1.00
2023-04-03T07:21:45.665Z,1.00
2023-04-03T07:24:16.202Z,1.00
2023-04-03T07:26:46.204Z,1.00
2023-04-03T07:29:15.075Z,1.00
2023-04-03T07:31:43.559Z,1.00
2023-04-03T07:34:13.358Z,1.00
2023-04-03T07:36:41.796Z,1.00
2023-04-03T07:39:10.019Z,1.00
2023-04-03T07:41:38.284Z,1.00
2023-04-03T07:44:07.059Z,1.00
2023-04-03T07:46:35.291Z,1.00
2023-04-03T07:49:03.864Z,1.00
2023-04-03T07:51:33.385Z,1.00
2023-04-03T07:54:01.958Z,1.00
2023-04-03T07:56:30.141Z,1.00
2023-04-03T07:58:58.321Z,1.00
2023-04-03T08:01:26.537Z,1.00
2023-04-03T08:03:54.891Z,1.30
2023-04-03T08:06:33.078Z,1.00
2023-04-03T08:09:12.042Z,1.00
2023-04-03T08:11:41.452Z,1.00
2023-04-03T08:14:16.403Z,1.00
2023-04-03T08:16:45.651Z,1.00
2023-04-03T08:19:22.486Z,1.00
2023-04-03T08:21:53.382Z,3.70
2023-04-03T08:24:22.964Z,1.00
2023-04-03T08:26:51.142Z,1.00
2023-04-03T08:29:19.528Z,4.40
2023-04-03T08:31:47.715Z,1.00
2023-04-03T08:34:16.837Z,1.00
2023-04-03T08:36:45.533Z,1.30
2023-04-03T08:39:13.942Z,1.00
2023-04-03T08:41:45.734Z,1.00
2023-04-03T08:44:19.288Z,1.00
2023-04-03T08:47:06.360Z,1.00
2023-04-03T08:49:38.387Z,1.00
2023-04-03T08:52:12.126Z,1.00
2023-04-03T08:54:51.880Z,1.00
2023-04-03T08:57:28.896Z,1.90
2023-04-03T08:59:57.862Z,1.00
2023-04-03T09:02:33.797Z,4.40
2023-04-03T09:05:03.763Z,1.00
2023-04-03T09:07:41.464Z,1.00
2023-04-03T09:10:14.117Z,1.00
2023-04-03T09:12:48.833Z,6.70
2023-04-03T09:15:31.330Z,2.80
2023-04-03T09:18:09.660Z,7.60
2023-04-03T09:20:48.554Z,11.30
2023-04-03T09:23:22.642Z,13.70
2023-04-03T09:25:53.185Z,20.80
2023-04-03T09:28:22.742Z,24.30
2023-04-03T09:30:50.887Z,16.00
2023-04-03T09:33:19.740Z,20.70
2023-04-03T09:35:49.685Z,8.50
2023-04-03T09:38:21.454Z,21.90
2023-04-03T09:40:52.264Z,25.30
2023-04-03T09:43:28.441Z,16.10
2023-04-03T09:45:57.704Z,24.50
2023-04-03T09:48:29.194Z,21.70
2023-04-03T09:51:02.817Z,21.40
2023-04-03T09:53:37.856Z,11.70
2023-04-03T09:56:20.895Z,15.30
2023-04-03T09:58:52.107Z,17.40
2023-04-03T10:01:27.792Z,27.20
2023-04-03T10:04:08.986Z,26.10
2023-04-03T10:06:41.648Z,22.70
2023-04-03T10:09:22.590Z,20.40
2023-04-03T10:12:05.676Z,22.30
2023-04-03T10:14:37.075Z,19.40
2023-04-03T10:17:17.970Z,17.50
2023-04-03T10:19:50.036Z,21.80
2023-04-03T10:22:34.993Z,18.80
2023-04-03T10:25:10.051Z,16.90
2023-04-03T10:27:50.962Z,21.90
2023-04-03T10:30:32.564Z,27.50
2023-04-03T10:33:14.778Z,23.10
2023-04-03T10:35:51.092Z,18.50
2023-04-03T10:38:27.217Z,17.00
2023-04-03T10:41:04.181Z,23.00
2023-04-03T10:43:38.450Z,21.30
2023-04-03T10:46:16.658Z,22.30
2023-04-03T10:49:12.859Z,17.30
2023-04-03T10:51:45.935Z,20.00
2023-04-03T10:54:18.931Z,15.60
2023-04-03T10:56:55.449Z,16.00
2023-04-03T10:59:35.467Z,15.60
2023-04-03T11:02:13.299Z,7.90
2023-04-03T11:04:44.976Z,13.30
2023-04-03T11:07:17.895Z,10.70
2023-04-03T11:09:49.634Z,8.60
2023-04-03T11:12:22.818Z,6.90
2023-04-03T11:14:53.753Z,7.40
2023-04-03T11:17:31.509Z,6.50
2023-04-03T11:20:07.617Z,8.70
2023-04-03T11:22:38.621Z,10.30
2023-04-03T11:25:20.839Z,11.30
2023-04-03T11:27:53.333Z,11.90
2023-04-03T11:30:25.756Z,6.40
2023-04-03T11:33:16.452Z,8.00
2023-04-03T11:35:47.844Z,15.60
2023-04-03T11:38:23.901Z,13.40
2023-04-03T11:40:53.129Z,13.10
2023-04-03T11:43:27.746Z,15.30
2023-04-03T11:46:01.993Z,14.10
2023-04-03T11:48:54.318Z,16.10
2023-04-03T11:51:49.294Z,19.00
2023-04-03T11:54:53.827Z,15.20
2023-04-03T11:57:56.132Z,15.60
2023-04-03T12:00:51.491Z,17.70
2023-04-03T12:03:53.565Z,17.20
2023-04-03T12:07:18.361Z,18.90
2023-04-03T12:10:31.668Z,18.70
2023-04-03T12:13:04.964Z,16.90
2023-04-03T12:15:52.449Z,18.10
2023-04-03T12:18:59.411Z,14.30
2023-04-03T12:22:09.332Z,14.00
2023-04-03T12:24:40.157Z,15.90
2023-04-03T12:27:29.916Z,20.00
2023-04-03T12:30:07.740Z,20.70
2023-04-03T12:32:56.267Z,20.90
2023-04-03T12:35:37.567Z,19.00
2023-04-03T12:38:39.915Z,18.80
2023-04-03T12:41:23.697Z,21.90
2023-04-03T12:44:13.676Z,19.80
2023-04-03T12:46:46.703Z,22.60
2023-04-03T12:49:26.702Z,20.30
2023-04-03T12:51:55.576Z,20.90
2023-04-03T12:54:28.203Z,24.00
2023-04-03T12:57:11.957Z,25.30
2023-04-03T12:59:42.287Z,24.40
2023-04-03T13:02:24.480Z,23.50
2023-04-03T13:04:53.860Z,20.30
2023-04-03T13:07:26.683Z,18.50
2023-04-03T13:10:02.595Z,18.70
2023-04-03T13:12:32.331Z,18.60
2023-04-03T13:15:05.338Z,19.80
2023-04-03T13:17:35.084Z,18.80
2023-04-03T13:20:14.289Z,16.80
2023-04-03T13:22:49.634Z,17.70
2023-04-03T13:25:19.053Z,15.10
2023-04-03T13:27:47.417Z,12.90
2023-04-03T13:30:26.582Z,14.60
2023-04-03T13:32:55.323Z,13.70
2023-04-03T13:35:38.873Z,13.70
2023-04-03T13:38:23.464Z,11.80
2023-04-03T13:40:52.463Z,13.70
2023-04-03T13:43:23.090Z,12.40
2023-04-03T13:46:05.954Z,12.80
2023-04-03T13:48:40.408Z,13.90
2023-04-03T13:51:19.535Z,14.90
2023-04-03T13:53:51.632Z,18.20
2023-04-03T13:56:25.074Z,15.90
2023-04-03T13:58:59.919Z,19.40
2023-04-03T14:01:39.849Z,19.70
2023-04-03T14:04:16.966Z,19.10
2023-04-03T14:06:45.403Z,18.70
2023-04-03T14:09:14.066Z,20.10
2023-04-03T14:11:43.058Z,19.10
2023-04-03T14:14:17.805Z,20.70
2023-04-03T14:16:49.912Z,18.20
2023-04-03T14:19:22.808Z,19.90
2023-04-03T14:21:53.535Z,18.80
2023-04-03T14:24:22.246Z,19.10
2023-04-03T14:26:54.807Z,20.70
2023-04-03T14:29:24.166Z,20.20
2023-04-03T14:32:03.651Z,18.40
2023-04-03T14:34:35.959Z,16.20
2023-04-03T14:37:04.115Z,18.10
2023-04-03T14:39:32.330Z,17.20
2023-04-03T14:42:00.507Z,13.30
2023-04-03T14:44:28.727Z,14.10
2023-04-03T14:46:58.498Z,13.80
2023-04-03T14:49:30.332Z,14.80
2023-04-03T14:51:59.090Z,16.50
2023-04-03T14:54:30.018Z,11.60
2023-04-03T14:57:00.767Z,16.50
2023-04-03T14:59:30.237Z,14.80
2023-04-03T15:01:59.935Z,13.80
2023-04-03T15:04:29.180Z,13.20
2023-04-03T15:06:57.502Z,15.80
2023-04-03T15:09:28.106Z,13.30
2023-04-03T15:11:57.523Z,13.70
2023-04-03T15:14:36.075Z,15.60
2023-04-03T15:17:08.093Z,15.50
2023-04-03T15:19:40.220Z,15.70
2023-04-03T15:22:08.913Z,15.70
2023-04-03T15:24:37.085Z,15.30
2023-04-03T15:27:05.292Z,16.40
2023-04-03T15:29:33.599Z,14.80
2023-04-03T15:32:02.041Z,16.30
2023-04-03T15:34:47.177Z,18.50
2023-04-03T15:37:15.429Z,18.20
2023-04-03T15:39:43.616Z,18.90
2023-04-03T15:42:13.383Z,17.00
2023-04-03T15:44:41.614Z,18.10
2023-04-03T15:47:10.053Z,16.50
2023-04-03T15:49:40.215Z,16.70
2023-04-03T15:52:08.486Z,17.30
2023-04-03T15:54:36.657Z,19.60
2023-04-03T15:57:05.054Z,18.40
2023-04-03T15:59:33.320Z,20.50
2023-04-03T16:02:03.748Z,21.80
2023-04-03T16:04:32.553Z,21.50
2023-04-03T16:07:03.355Z,19.70
2023-04-03T16:09:31.879Z,21.80
2023-04-03T16:12:00.149Z,22.90
2023-04-03T16:14:28.980Z,20.60
2023-04-03T16:16:57.869Z,21.70
2023-04-03T16:19:26.420Z,20.80
2023-04-03T16:21:55.959Z,17.40
2023-04-03T16:24:25.579Z,19.20
2023-04-03T16:26:54.419Z,18.40
2023-04-03T16:29:22.662Z,18.30
2023-04-03T16:31:50.953Z,19.00
2023-04-03T16:34:19.182Z,20.40
2023-04-03T16:36:47.539Z,20.10
2023-04-03T16:39:15.976Z,19.70
2023-04-03T16:41:46.232Z,20.40
2023-04-03T16:44:14.719Z,21.00
2023-04-03T16:46:43.116Z,20.80
2023-04-03T16:49:11.437Z,20.80
2023-04-03T16:51:39.599Z,19.70
2023-04-03T16:54:08.092Z,19.40
2023-04-03T16:56:36.234Z,20.30
2023-04-03T16:59:05.871Z,18.90
2023-04-03T17:01:34.334Z,20.40
2023-04-03T17:04:02.608Z,18.60
2023-04-03T17:06:30.873Z,20.80
2023-04-03T17:08:59.036Z,20.60
2023-04-03T17:11:27.822Z,20.20
2023-04-03T17:13:56.099Z,19.60
2023-04-03T17:16:27.011Z,19.30
2023-04-03T17:18:56.001Z,19.50
2023-04-03T17:21:24.746Z,19.40
2023-04-03T17:23:58.382Z,22.50
2023-04-03T17:26:27.526Z,21.20
2023-04-03T17:28:55.800Z,21.90
2023-04-03T17:31:25.426Z,23.10
2023-04-03T17:33:53.787Z,21.10
2023-04-03T17:36:22.002Z,23.30
2023-04-03T17:38:52.083Z,21.90
2023-04-03T17:41:20.815Z,22.50
2023-04-03T17:43:49.266Z,21.70
2023-04-03T17:46:17.839Z,22.40
2023-04-03T17:48:47.463Z,22.20
2023-04-03T17:51:17.602Z,23.00
2023-04-03T17:53:45.854Z,22.70
2023-04-03T17:56:16.104Z,23.10
2023-04-03T17:58:44.425Z,22.70
2023-04-03T18:01:14.772Z,22.90
2023-04-03T18:03:43.425Z,21.90
2023-04-03T18:06:16.028Z,21.30
2023-04-03T18:08:47.318Z,20.50
2023-04-03T18:11:16.498Z,23.70
2023-04-03T18:13:46.282Z,21.90
2023-04-03T18:16:15.297Z,21.70
2023-04-03T18:18:43.580Z,21.20
2023-04-03T18:21:15.416Z,23.00
2023-04-03T18:23:47.296Z,21.80
2023-04-03T18:26:19.775Z,21.40
2023-04-03T18:28:55.954Z,21.50
2023-04-03T18:31:26.201Z,24.00
2023-04-03T18:33:56.174Z,21.80
2023-04-03T18:36:26.059Z,23.70
2023-04-03T18:38:54.694Z,22.50
2023-04-03T18:41:26.865Z,21.40
2023-04-03T18:43:57.638Z,20.60
2023-04-03T18:46:26.110Z,23.30
2023-04-03T18:48:55.332Z,22.80
2023-04-03T18:51:25.651Z,25.40
2023-04-03T18:53:53.863Z,23.40
2023-04-03T18:56:22.390Z,25.60
2023-04-03T18:58:50.848Z,24.70
2023-04-03T19:01:19.937Z,25.10
2023-04-03T19:03:48.421Z,24.50
2023-04-03T19:06:16.772Z,24.30
2023-04-03T19:08:47.086Z,20.00
2023-04-03T19:11:15.474Z,25.00
2023-04-03T19:13:46.900Z,27.80
2023-04-03T19:16:31.793Z,22.40
2023-04-03T19:19:00.047Z,23.70
2023-04-03T19:21:28.675Z,23.70
2023-04-03T19:23:59.380Z,22.90
2023-04-03T19:26:27.768Z,24.80
2023-04-03T19:28:56.027Z,23.10
2023-04-03T19:31:24.409Z,26.90
2023-04-03T19:33:52.798Z,25.80
2023-04-03T19:36:21.626Z,22.90
2023-04-03T19:38:49.857Z,20.40
2023-04-03T19:41:22.620Z,21.90
2023-04-03T19:43:52.867Z,20.40
2023-04-03T19:46:23.801Z,18.70
2023-04-03T19:48:52.302Z,27.60
2023-04-03T19:51:20.808Z,27.30
2023-04-03T19:53:49.029Z,26.80
2023-04-03T19:56:17.772Z,26.30
2023-04-03T19:58:53.610Z,23.40
2023-04-03T20:01:24.264Z,22.50
2023-04-03T20:03:52.751Z,25.90
2023-04-03T20:06:21.745Z,25.50
2023-04-03T20:08:50.208Z,26.00
2023-04-03T20:11:18.530Z,22.80
2023-04-03T20:13:50.570Z,25.60
2023-04-03T20:16:19.461Z,25.80
2023-04-03T20:18:48.575Z,26.40
2023-04-03T20:21:18.745Z,23.60
2023-04-03T20:23:46.911Z,25.20
2023-04-03T20:26:23.507Z,24.00
2023-04-03T20:28:53.871Z,21.20
2023-04-03T20:31:22.937Z,21.90
2023-04-03T20:33:51.320Z,28.00
2023-04-03T20:36:21.765Z,25.50
2023-04-03T20:38:52.443Z,27.40
2023-04-03T20:41:20.863Z,26.10
2023-04-03T20:43:49.097Z,27.00
2023-04-03T20:46:19.959Z,29.50
2023-04-03T20:48:48.919Z,29.50
2023-04-03T20:51:19.471Z,29.30
2023-04-03T20:53:48.300Z,26.80
2023-04-03T20:56:17.275Z,25.00
2023-04-03T20:58:47.288Z,23.70
2023-04-03T21:01:19.102Z,23.20
2023-04-03T21:03:48.161Z,26.90
2023-04-03T21:06:55.369Z,23.90
2023-04-03T21:10:00.982Z,23.50
2023-04-03T21:13:07.063Z,25.00
2023-04-03T21:15:51.271Z,26.10
2023-04-03T21:18:59.419Z,23.20
2023-04-03T21:21:28.121Z,23.50
2023-04-03T21:23:57.166Z,17.10
2023-04-03T21:26:28.244Z,22.70
2023-04-03T21:28:57.066Z,24.60
2023-04-03T21:31:25.754Z,26.70
2023-04-03T21:33:55.329Z,29.10
2023-04-03T21:36:23.492Z,26.50
2023-04-03T21:38:51.646Z,29.80
2023-04-03T21:41:19.786Z,32.90
2023-04-03T21:43:48.173Z,37.20
2023-04-03T21:46:16.387Z,31.20
2023-04-03T21:48:47.035Z,30.50
2023-04-03T21:51:17.366Z,28.90
2023-04-03T21:53:46.626Z,32.50
2023-04-03T21:56:14.790Z,27.00
2023-04-03T21:58:42.964Z,22.80
2023-04-03T22:01:11.873Z,25.90
2023-04-03T22:03:40.956Z,27.30
2023-04-03T22:06:09.732Z,28.50
2023-04-03T22:08:39.441Z,30.00
2023-04-03T22:11:09.604Z,30.50
2023-04-03T22:13:38.508Z,24.00
2023-04-03T22:16:07.337Z,23.60
2023-04-03T22:18:36.879Z,26.40
2023-04-03T22:21:08.388Z,23.40
2023-04-03T22:23:38.675Z,23.10
2023-04-03T22:26:08.489Z,26.20
2023-04-03T22:28:38.724Z,23.10
2023-04-03T22:31:08.334Z,24.30
2023-04-03T22:33:37.416Z,25.50
2023-04-03T22:36:07.013Z,23.00
2023-04-03T22:38:36.847Z,21.10
2023-04-03T22:41:08.187Z,19.30
2023-04-03T22:43:37.483Z,22.60
2023-04-03T22:46:07.335Z,21.30
2023-04-03T22:48:35.713Z,22.00
2023-04-03T22:51:07.368Z,27.40
2023-04-03T22:53:35.963Z,27.10
2023-04-03T22:56:08.574Z,21.50
2023-04-03T22:58:36.893Z,21.40
2023-04-03T23:01:06.857Z,19.60
2023-04-03T23:03:35.163Z,21.40
2023-04-03T23:06:03.644Z,21.00
2023-04-03T23:08:32.719Z,29.00
2023-04-03T23:11:02.229Z,29.80
2023-04-03T23:13:31.761Z,25.00
2023-04-03T23:16:01.434Z,24.90
2023-04-03T23:18:30.640Z,25.60
2023-04-03T23:21:00.752Z,23.30
2023-04-03T23:23:28.912Z,26.20
2023-04-03T23:25:59.072Z,15.40
2023-04-03T23:28:27.701Z,25.20
2023-04-03T23:31:01.402Z,25.90
2023-04-03T23:33:30.597Z,22.80
2023-04-03T23:35:59.428Z,25.10
2023-04-03T23:38:27.856Z,28.80
2023-04-03T23:40:56.050Z,22.20
2023-04-03T23:43:24.216Z,23.90
2023-04-03T23:45:52.661Z,25.10
2023-04-03T23:48:22.355Z,24.70
2023-04-03T23:50:50.649Z,26.10
2023-04-03T23:53:19.099Z,23.50
2023-04-03T23:55:47.227Z,22.40
2023-04-03T23:58:15.849Z,18.60
